createdAt,value
2023-05-05T00:01:38.727Z,15.53
2023-05-05T00:04:41.198Z,15.36
2023-05-05T00:07:43.477Z,15.51
2023-05-05T00:10:46.535Z,15.37
2023-05-05T00:13:48.937Z,15.45
2023-05-05T00:16:51.215Z,15.54
2023-05-05T00:19:53.529Z,15.54
2023-05-05T00:22:55.828Z,15.54
2023-05-05T00:25:58.103Z,15.52
2023-05-05T00:29:00.356Z,15.37
2023-05-05T00:32:02.844Z,15.31
2023-05-05T00:35:06.312Z,15.31
2023-05-05T00:38:08.648Z,15.20
2023-05-05T00:41:11.210Z,15.01
2023-05-05T00:44:13.553Z,15.08
2023-05-05T00:47:17.275Z,15.05
2023-05-05T00:50:30.194Z,14.99
2023-05-05T00:53:32.661Z,14.90
2023-05-05T00:56:34.908Z,14.94
2023-05-05T00:59:37.541Z,14.99
2023-05-05T01:02:40.580Z,14.91
2023-05-05T01:05:51.539Z,14.77
2023-05-05T01:09:01.866Z,14.81
2023-05-05T01:12:07.118Z,14.76
2023-05-05T01:15:27.678Z,14.70
2023-05-05T01:18:49.923Z,14.73
2023-05-05T01:21:57.655Z,14.73
2023-05-05T01:25:12.767Z,14.67
2023-05-05T01:28:24.162Z,14.66
2023-05-05T01:31:54.155Z,14.41
2023-05-05T01:35:00.755Z,14.55
2023-05-05T01:38:07.032Z,14.60
2023-05-05T01:41:16.123Z,14.53
2023-05-05T01:44:19.997Z,14.45
2023-05-05T01:47:23.113Z,14.30
2023-05-05T01:50:28.082Z,14.35
2023-05-05T01:53:31.642Z,14.30
2023-05-05T01:56:35.202Z,14.14
2023-05-05T01:59:40.973Z,14.07
2023-05-05T02:02:45.793Z,14.05
2023-05-05T02:05:48.948Z,13.99
2023-05-05T02:08:51.659Z,13.98
2023-05-05T02:11:54.478Z,13.91
2023-05-05T02:14:58.834Z,13.74
2023-05-05T02:18:02.367Z,13.65
2023-05-05T02:21:05.223Z,13.72
2023-05-05T02:24:08.683Z,13.67
2023-05-05T02:27:11.960Z,13.58
2023-05-05T02:30:16.288Z,13.61
2023-05-05T02:33:20.405Z,13.64
2023-05-05T02:36:28.835Z,13.64
2023-05-05T02:39:43.807Z,13.59
2023-05-05T02:42:53.574Z,13.55
2023-05-05T02:45:58.858Z,13.54
2023-05-05T02:49:02.733Z,13.56
2023-05-05T02:52:05.179Z,13.55
2023-05-05T02:55:11.452Z,13.55
2023-05-05T02:58:24.998Z,13.55
2023-05-05T03:01:51.546Z,13.65
2023-05-05T03:05:02.773Z,13.66
2023-05-05T03:08:50.547Z,13.66
2023-05-05T03:12:05.886Z,13.70
2023-05-05T03:15:18.460Z,13.43
2023-05-05T03:18:22.872Z,13.50
2023-05-05T03:21:32.725Z,13.53
2023-05-05T03:24:35.161Z,13.54
2023-05-05T03:27:42.547Z,13.45
2023-05-05T03:30:47.198Z,13.51
2023-05-05T03:33:50.964Z,13.40
2023-05-05T03:36:56.427Z,13.23
2023-05-05T03:39:58.971Z,13.27
2023-05-05T03:43:01.468Z,13.41
2023-05-05T03:46:04.255Z,13.50
2023-05-05T03:49:08.323Z,13.60
2023-05-05T03:52:12.180Z,13.83
2023-05-05T03:55:16.163Z,13.74
2023-05-05T03:58:18.999Z,13.95
2023-05-05T04:01:21.429Z,13.97
2023-05-05T04:04:23.950Z,13.97
2023-05-05T04:07:27.441Z,13.91
2023-05-05T04:10:30.661Z,13.83
2023-05-05T04:13:33.694Z,14.01
2023-05-05T04:16:36.360Z,14.08
2023-05-05T04:19:38.747Z,14.19
2023-05-05T04:22:42.116Z,14.31
2023-05-05T04:25:45.763Z,14.40
2023-05-05T04:28:48.661Z,14.37
2023-05-05T04:31:53.953Z,14.44
2023-05-05T04:34:56.477Z,14.61
2023-05-05T04:37:59.646Z,14.74
2023-05-05T04:41:06.454Z,14.81
2023-05-05T04:44:09.744Z,14.82
2023-05-05T04:47:14.486Z,14.81
2023-05-05T04:50:17.460Z,14.80
2023-05-05T04:53:19.813Z,14.80
2023-05-05T04:56:22.125Z,14.90
2023-05-05T04:59:24.442Z,14.96
2023-05-05T05:02:27.152Z,15.14
2023-05-05T05:05:29.971Z,15.11
2023-05-05T05:08:32.447Z,15.16
2023-05-05T05:11:35.469Z,15.33
2023-05-05T05:14:38.568Z,15.30
2023-05-05T05:17:41.014Z,15.14
2023-05-05T05:20:43.844Z,15.54
2023-05-05T05:23:47.396Z,15.72
2023-05-05T05:26:49.842Z,15.70
2023-05-05T05:29:52.435Z,15.71
2023-05-05T05:32:54.864Z,15.98
2023-05-05T05:35:57.445Z,16.24
2023-05-05T05:39:00.801Z,16.57
2023-05-05T05:42:04.692Z,16.64
2023-05-05T05:45:08.327Z,16.66
2023-05-05T05:48:11.618Z,16.85
2023-05-05T05:51:14.141Z,16.90
2023-05-05T05:54:16.835Z,16.99
2023-05-05T05:57:19.309Z,17.25
2023-05-05T06:00:22.069Z,17.48
2023-05-05T06:03:31.755Z,17.78
2023-05-05T06:06:34.395Z,18.10
2023-05-05T06:09:36.714Z,18.41
2023-05-05T06:12:39.089Z,18.59
2023-05-05T06:15:41.477Z,18.69
2023-05-05T06:18:44.419Z,18.96
2023-05-05T06:21:46.732Z,19.01
2023-05-05T06:24:48.973Z,19.19
2023-05-05T06:27:52.246Z,19.50
2023-05-05T06:30:54.523Z,19.63
2023-05-05T06:33:56.722Z,19.73
2023-05-05T06:36:59.003Z,19.99
2023-05-05T06:40:01.291Z,19.97
2023-05-05T06:43:03.586Z,20.20
2023-05-05T06:46:11.310Z,20.22
2023-05-05T06:49:13.522Z,20.68
2023-05-05T06:52:15.840Z,20.96
2023-05-05T06:55:18.491Z,20.95
2023-05-05T06:58:21.591Z,21.16
2023-05-05T07:01:23.970Z,21.23
2023-05-05T07:04:26.935Z,21.37
2023-05-05T07:07:29.307Z,21.79
2023-05-05T07:10:32.024Z,22.12
2023-05-05T07:13:34.325Z,22.53
2023-05-05T07:16:37.261Z,22.85
2023-05-05T07:19:39.671Z,22.88
2023-05-05T07:22:42.331Z,22.77
2023-05-05T07:25:44.669Z,22.70
2023-05-05T07:28:46.933Z,22.94
2023-05-05T07:31:49.316Z,22.58
2023-05-05T07:34:51.747Z,22.79
2023-05-05T07:37:53.986Z,22.63
2023-05-05T07:40:56.283Z,23.03
2023-05-05T07:43:58.541Z,23.23
2023-05-05T07:47:01.159Z,23.27
2023-05-05T07:50:03.703Z,23.52
2023-05-05T07:53:14.370Z,23.80
2023-05-05T07:56:17.273Z,23.79
2023-05-05T07:59:19.553Z,24.15
2023-05-05T08:02:22.035Z,24.19
2023-05-05T08:05:24.404Z,24.00
2023-05-05T08:08:27.092Z,24.29
2023-05-05T08:11:29.718Z,24.12
2023-05-05T08:14:33.100Z,24.45
2023-05-05T08:17:52.313Z,24.64
2023-05-05T08:20:54.856Z,24.86
2023-05-05T08:23:57.314Z,24.63
2023-05-05T08:26:59.565Z,24.86
2023-05-05T08:30:03.143Z,24.95
2023-05-05T08:33:05.774Z,24.93
2023-05-05T08:36:08.920Z,25.08
2023-05-05T08:39:11.375Z,24.61
2023-05-05T08:42:22.314Z,24.74
2023-05-05T08:45:32.247Z,24.95
2023-05-05T08:48:35.760Z,24.74
2023-05-05T08:51:42.189Z,24.89
2023-05-05T08:55:08.266Z,24.55
2023-05-05T08:58:13.749Z,24.89
2023-05-05T09:01:18.072Z,25.14
2023-05-05T09:04:20.780Z,25.36
2023-05-05T09:07:26.006Z,25.62
2023-05-05T09:10:50.157Z,25.60
2023-05-05T09:13:52.446Z,25.48
2023-05-05T09:16:54.794Z,25.56
2023-05-05T09:20:04.940Z,25.82
2023-05-05T09:23:09.652Z,25.83
2023-05-05T09:26:11.958Z,25.79
2023-05-05T09:29:19.178Z,25.30
2023-05-05T09:32:21.678Z,25.38
2023-05-05T09:35:23.962Z,25.68
2023-05-05T09:38:26.231Z,25.55
2023-05-05T09:41:42.565Z,25.79
2023-05-05T09:44:44.814Z,26.07
2023-05-05T09:47:47.929Z,26.43
2023-05-05T09:50:50.510Z,26.18
2023-05-05T09:53:52.773Z,26.36
2023-05-05T09:56:56.452Z,26.28
2023-05-05T10:00:01.261Z,26.07
2023-05-05T10:03:03.806Z,25.49
2023-05-05T10:06:07.918Z,25.58
2023-05-05T10:09:10.856Z,25.89
2023-05-05T10:12:13.143Z,25.51
2023-05-05T10:15:16.543Z,25.18
2023-05-05T10:18:27.112Z,24.96
2023-05-05T10:21:33.568Z,25.33
2023-05-05T10:25:12.668Z,25.82
2023-05-05T10:28:19.487Z,25.85
2023-05-05T10:31:39.875Z,26.19
2023-05-05T10:34:51.431Z,26.18
2023-05-05T10:37:54.912Z,26.31
2023-05-05T10:40:59.852Z,26.48
2023-05-05T10:44:04.448Z,26.50
2023-05-05T10:47:07.839Z,25.87
2023-05-05T10:50:39.013Z,25.76
2023-05-05T10:54:00.959Z,26.23
2023-05-05T10:57:05.001Z,26.61
2023-05-05T11:00:10.534Z,26.45
2023-05-05T11:03:19.493Z,26.65
2023-05-05T11:06:21.824Z,26.48
2023-05-05T11:09:28.301Z,25.74
2023-05-05T11:12:32.065Z,26.09
2023-05-05T11:15:37.654Z,26.09
2023-05-05T11:18:44.419Z,26.08
2023-05-05T11:22:16.681Z,26.11
2023-05-05T11:25:37.760Z,25.64
2023-05-05T11:28:58.408Z,26.11
2023-05-05T11:32:14.420Z,26.53
2023-05-05T11:35:16.878Z,26.69
2023-05-05T11:38:19.980Z,25.80
2023-05-05T11:41:34.124Z,26.45
2023-05-05T11:44:37.742Z,26.80
2023-05-05T11:47:40.115Z,26.85
2023-05-05T11:50:42.381Z,26.92
2023-05-05T11:53:49.497Z,27.15
2023-05-05T11:57:09.103Z,26.99
2023-05-05T12:00:12.189Z,27.04
2023-05-05T12:03:14.796Z,26.65
2023-05-05T12:06:17.219Z,25.90
2023-05-05T12:09:21.085Z,25.62
2023-05-05T12:12:40.195Z,25.85
2023-05-05T12:15:42.637Z,25.59
2023-05-05T12:18:44.894Z,25.17
2023-05-05T12:21:47.190Z,25.57
2023-05-05T12:25:01.155Z,25.72
2023-05-05T12:28:03.521Z,25.78
2023-05-05T12:31:05.870Z,25.48
2023-05-05T12:34:11.981Z,25.26
2023-05-05T12:37:16.392Z,25.34
2023-05-05T12:40:42.159Z,24.70
2023-05-05T12:43:44.489Z,24.52
2023-05-05T12:46:47.905Z,24.64
2023-05-05T12:49:51.645Z,25.10
2023-05-05T12:52:54.370Z,25.10
2023-05-05T12:55:56.616Z,25.11
2023-05-05T12:58:59.433Z,25.02
2023-05-05T13:02:02.437Z,24.87
2023-05-05T13:05:05.140Z,24.85
2023-05-05T13:08:07.411Z,25.08
2023-05-05T13:11:09.647Z,25.32
2023-05-05T13:14:11.974Z,25.39
2023-05-05T13:17:14.661Z,25.51
2023-05-05T13:20:19.141Z,25.44
2023-05-05T13:23:21.406Z,25.32
2023-05-05T13:26:24.948Z,25.13
2023-05-05T13:29:31.415Z,25.04
2023-05-05T13:32:33.947Z,24.67
2023-05-05T13:35:36.370Z,24.15
2023-05-05T13:38:38.643Z,24.29
2023-05-05T13:41:40.966Z,24.46
2023-05-05T13:44:43.242Z,24.60
2023-05-05T13:47:45.717Z,24.58
2023-05-05T13:50:48.472Z,24.38
2023-05-05T13:53:50.959Z,24.41
2023-05-05T13:56:53.262Z,24.57
2023-05-05T13:59:55.520Z,24.38
2023-05-05T14:02:57.801Z,24.31
2023-05-05T14:06:00.067Z,24.29
2023-05-05T14:09:05.794Z,24.31
2023-05-05T14:12:08.430Z,24.26
2023-05-05T14:15:11.853Z,24.34
2023-05-05T14:18:14.223Z,24.34
2023-05-05T14:21:16.504Z,24.13
2023-05-05T14:24:18.767Z,24.20
2023-05-05T14:27:21.211Z,24.40
2023-05-05T14:30:23.548Z,24.30
2023-05-05T14:33:25.914Z,24.45
2023-05-05T14:36:28.222Z,24.11
2023-05-05T14:39:31.046Z,24.08
2023-05-05T14:42:33.361Z,24.16
2023-05-05T14:45:35.706Z,24.35
2023-05-05T14:48:38.138Z,24.43
2023-05-05T14:51:41.086Z,24.33
2023-05-05T14:54:43.386Z,24.17
2023-05-05T14:57:45.703Z,24.20
2023-05-05T15:00:48.368Z,24.06
2023-05-05T15:03:51.950Z,23.91
2023-05-05T15:06:54.319Z,23.85
2023-05-05T15:09:56.593Z,23.79
2023-05-05T15:12:59.004Z,23.66
2023-05-05T15:16:01.445Z,23.61
2023-05-05T15:19:03.798Z,23.60
2023-05-05T15:22:06.027Z,23.49
2023-05-05T15:25:12.435Z,23.55
2023-05-05T15:28:14.846Z,23.44
2023-05-05T15:31:17.321Z,23.32
2023-05-05T15:34:19.653Z,23.38
2023-05-05T15:37:21.986Z,23.29
2023-05-05T15:40:24.375Z,23.38
2023-05-05T15:43:26.752Z,23.28
2023-05-05T15:46:32.275Z,23.24
2023-05-05T15:49:34.591Z,23.04
2023-05-05T15:52:36.968Z,23.04
2023-05-05T15:55:40.260Z,23.02
2023-05-05T15:58:42.535Z,22.93
2023-05-05T16:01:44.825Z,22.97
2023-05-05T16:04:47.122Z,22.85
2023-05-05T16:07:49.398Z,22.75
2023-05-05T16:10:51.687Z,22.75
2023-05-05T16:13:54.005Z,22.76
2023-05-05T16:16:56.831Z,22.70
2023-05-05T16:19:59.136Z,22.69
2023-05-05T16:23:01.400Z,22.66
2023-05-05T16:26:04.210Z,22.60
2023-05-05T16:29:07.723Z,22.57
2023-05-05T16:32:09.995Z,22.56
2023-05-05T16:35:12.368Z,22.56
2023-05-05T16:38:14.833Z,22.52
2023-05-05T16:41:17.374Z,22.52
2023-05-05T16:44:19.684Z,22.51
2023-05-05T16:47:21.966Z,22.46
2023-05-05T16:50:24.299Z,22.40
2023-05-05T16:53:26.601Z,22.42
2023-05-05T16:56:28.923Z,22.27
2023-05-05T16:59:31.692Z,22.27
2023-05-05T17:02:35.366Z,22.20
2023-05-05T17:05:37.923Z,22.19
2023-05-05T17:08:40.432Z,22.15
2023-05-05T17:11:42.778Z,22.14
2023-05-05T17:14:48.012Z,22.04
2023-05-05T17:17:50.373Z,22.06
2023-05-05T17:20:52.910Z,21.97
2023-05-05T17:23:55.206Z,21.95
2023-05-05T17:26:57.514Z,21.94
2023-05-05T17:29:59.778Z,21.82
2023-05-05T17:33:02.126Z,21.86
2023-05-05T17:36:04.958Z,21.78
2023-05-05T17:39:07.498Z,21.78
2023-05-05T17:42:09.849Z,21.73
2023-05-05T17:45:12.208Z,21.59
2023-05-05T17:48:14.758Z,21.69
2023-05-05T17:51:17.151Z,21.63
2023-05-05T17:54:19.457Z,21.61
2023-05-05T17:57:22.843Z,21.52
2023-05-05T18:00:25.431Z,21.52
2023-05-05T18:03:27.767Z,21.32
2023-05-05T18:06:30.098Z,21.17
2023-05-05T18:09:32.608Z,21.10
2023-05-05T18:12:34.916Z,21.04
2023-05-05T18:15:37.231Z,20.98
2023-05-05T18:18:41.192Z,21.02
2023-05-05T18:21:43.527Z,20.98
2023-05-05T18:24:46.707Z,20.95
2023-05-05T18:27:48.975Z,20.85
2023-05-05T18:30:51.321Z,20.68
2023-05-05T18:33:56.690Z,20.65
2023-05-05T18:36:58.952Z,20.52
2023-05-05T18:40:01.235Z,20.42
2023-05-05T18:43:03.675Z,20.37
2023-05-05T18:46:05.941Z,20.36
2023-05-05T18:49:08.474Z,20.28
2023-05-05T18:52:10.796Z,20.20
2023-05-05T18:55:13.126Z,20.13
2023-05-05T18:58:16.836Z,19.93
2023-05-05T19:01:19.253Z,19.78
2023-05-05T19:04:30.813Z,19.78
2023-05-05T19:07:35.839Z,19.68
2023-05-05T19:10:38.382Z,19.64
2023-05-05T19:13:41.105Z,19.50
2023-05-05T19:16:43.473Z,19.29
2023-05-05T19:19:45.830Z,19.30
2023-05-05T19:22:48.262Z,19.25
2023-05-05T19:25:53.827Z,19.23
2023-05-05T19:28:56.162Z,19.04
2023-05-05T19:31:58.547Z,18.95
2023-05-05T19:35:01.547Z,18.89
2023-05-05T19:38:03.768Z,18.84
2023-05-05T19:41:06.151Z,18.76
2023-05-05T19:44:08.431Z,18.77
2023-05-05T19:47:11.233Z,18.69
2023-05-05T19:50:15.450Z,18.63
2023-05-05T19:53:17.745Z,18.59
2023-05-05T19:56:20.052Z,18.54
2023-05-05T19:59:23.775Z,18.47
2023-05-05T20:02:27.277Z,18.30
2023-05-05T20:05:29.614Z,18.36
2023-05-05T20:08:31.855Z,18.40
2023-05-05T20:11:34.183Z,18.12
2023-05-05T20:14:36.446Z,18.27
2023-05-05T20:17:38.922Z,18.16
2023-05-05T20:20:41.258Z,18.04
2023-05-05T20:23:45.242Z,18.05
2023-05-05T20:26:47.650Z,17.96
2023-05-05T20:29:49.944Z,17.85
2023-05-05T20:32:53.586Z,17.89
2023-05-05T20:35:56.062Z,17.76
2023-05-05T20:38:58.366Z,17.82
2023-05-05T20:42:01.205Z,17.75
2023-05-05T20:45:03.802Z,17.69
2023-05-05T20:48:09.870Z,17.75
2023-05-05T20:51:12.246Z,17.69
2023-05-05T20:54:14.614Z,17.50
2023-05-05T20:57:16.909Z,17.42
2023-05-05T21:00:19.195Z,17.44
2023-05-05T21:03:21.709Z,17.44
2023-05-05T21:06:24.406Z,17.44
2023-05-05T21:09:26.928Z,17.32
2023-05-05T21:12:29.844Z,17.31
2023-05-05T21:15:32.150Z,17.18
2023-05-05T21:18:34.474Z,17.21
2023-05-05T21:21:36.748Z,17.18
2023-05-05T21:24:39.235Z,17.01
2023-05-05T21:27:41.647Z,17.10
2023-05-05T21:30:45.271Z,17.08
2023-05-05T21:33:50.599Z,16.97
2023-05-05T21:36:52.854Z,16.89
2023-05-05T21:39:55.141Z,16.92
2023-05-05T21:42:57.430Z,16.87
2023-05-05T21:46:00.160Z,16.78
2023-05-05T21:49:14.433Z,16.71
2023-05-05T21:52:17.264Z,16.68
2023-05-05T21:55:19.704Z,16.74
2023-05-05T21:58:23.841Z,16.75
2023-05-05T22:01:26.191Z,16.68
2023-05-05T22:04:28.442Z,16.55
2023-05-05T22:07:32.826Z,16.58
2023-05-05T22:10:35.378Z,16.54
2023-05-05T22:13:39.069Z,16.57
2023-05-05T22:16:41.571Z,16.61
2023-05-05T22:19:43.885Z,16.66
2023-05-05T22:22:46.188Z,16.57
2023-05-05T22:25:48.426Z,16.47
2023-05-05T22:28:50.786Z,16.46
2023-05-05T22:31:53.327Z,16.56
2023-05-05T22:34:55.735Z,16.67
2023-05-05T22:37:58.060Z,16.63
2023-05-05T22:41:00.359Z,16.61
2023-05-05T22:44:02.645Z,16.54
2023-05-05T22:47:04.984Z,16.56
2023-05-05T22:50:08.231Z,16.57
2023-05-05T22:53:10.693Z,16.53
2023-05-05T22:56:13.041Z,16.51
2023-05-05T22:59:15.601Z,16.45
2023-05-05T23:02:18.202Z,16.44
2023-05-05T23:05:20.777Z,16.42
2023-05-05T23:08:24.098Z,16.37
2023-05-05T23:11:26.841Z,16.35
2023-05-05T23:14:29.116Z,16.40
2023-05-05T23:17:31.450Z,16.36
2023-05-05T23:20:33.735Z,16.23
2023-05-05T23:23:36.230Z,16.06
2023-05-05T23:26:38.551Z,16.00
2023-05-05T23:29:40.931Z,16.00
2023-05-05T23:32:44.995Z,15.98
2023-05-05T23:35:47.966Z,15.95
2023-05-05T23:38:50.259Z,15.94
2023-05-05T23:41:52.506Z,15.85
2023-05-05T23:44:54.774Z,15.92
2023-05-05T23:47:57.063Z,15.79
2023-05-05T23:50:59.331Z,15.78
2023-05-05T23:54:02.027Z,15.77
2023-05-05T23:57:04.383Z,15.76
